Terminal Aerodrome Forecast
Issued by NWS Wilmington, NC

Current Version | Previous Version | Graphics & Text | Print | Product List | Glossary Off
Versions: 1 2 3 4 5 6 7 8 9 10 11 12 13 14 15 16 17 18 19

066
FTUS42 KILM 111721
TAFFLO
TAF
KFLO 111721Z 1118/1218 23005KT P6SM SKC
     FM120600 22007KT P6SM SKC WS015/24040KT
     FM121500 25011G18KT P6SM FEW040 BKN250=

USA.gov is the U.S. government's official web portal to all federal, state and local government web resources and services.